Check out our new PWSWeather beta!
PWSweather.com
Personal Weather Stations
Station Observations
IRIVIRED2
île Maurice, Petit RaffrayMU

île MauricePetit RaffrayMU

Lat: -20.02533, Lon: 57.61883

Elevation: 183

Station Type: Davis Vantage Pro2 plus

http://www.meteomauritius.altervista.org

Latest ConditionsUpdated 4:30:01 PM GMT+04:04 Thursday, Feb 27, 2020
Currently Today's Max Today's Min Today's Average
Temperature 78.3°F25.7°C 80.5°F26.9°C 77.4°F25.2°C 78.6°F25.9°C
Dew Point 73.8°F23.2°C 74.8°F23.8°C 64.2°F17.9°C 69.3°F20.7°C
Winds 6.9 mph E11.1 kmh E 13.8 mph -22.2 kmh - - 5.5 mph 8.9 kmh
Wind Gusts 9.2 mph14.8 kmh 20.7 mph33.3 kmh - -
Humidity 86% 86% 62% 74%
Pressure 29.87 in1011.5 mb 29.94 in1013.9 mb 29.87 in1011.5 mb -
Precipitation - 0.15 in3.8 mm - -
Hour Temp Dew Point Humidity Winds Wind Gusts Pressure Precip Precip Rate Daily Precip Total
04:30 PM 78.3°F25.7°C 73.8°F23.2°C 86% 6.9 mph E11.1 kmh E 9.2 mph14.8 kmh 29.87 in1011.5 mb - 0.00 in0.0 mm 0.15 in3.8 mm
04:25 PM 78.3°F25.7°C 73.8°F23.2°C 86% 5.8 mph E9.3 kmh E 8.1 mph13.0 kmh 29.87 in1011.5 mb - 0.00 in0.0 mm 0.15 in3.8 mm
04:20 PM 78.5°F25.8°C 74.0°F23.3°C 86% 5.8 mph E9.3 kmh E 9.2 mph14.8 kmh 29.87 in1011.5 mb - 0.00 in0.0 mm 0.15 in3.8 mm
04:15 PM 78.6°F25.9°C 74.1°F23.4°C 86% 5.8 mph E9.3 kmh E 8.1 mph13.0 kmh 29.87 in1011.5 mb - 0.00 in0.0 mm 0.15 in3.8 mm
04:10 PM 78.6°F25.9°C 74.0°F23.3°C 86% 5.8 mph E9.3 kmh E 10.4 mph16.7 kmh 29.87 in1011.5 mb - 0.00 in0.0 mm 0.15 in3.8 mm
04:00 PM 78.7°F25.9°C 74.1°F23.4°C 86% 5.8 mph E9.3 kmh E 8.1 mph13.0 kmh 29.87 in1011.5 mb - 0.00 in0.0 mm 0.15 in3.8 mm
03:55 PM 78.7°F25.9°C 74.2°F23.4°C 86% 6.9 mph E11.1 kmh E 12.7 mph20.4 kmh 29.87 in1011.5 mb - 0.00 in0.0 mm 0.15 in3.8 mm
03:50 PM 78.8°F26.0°C 74.3°F23.5°C 86% 8.1 mph E13.0 kmh E 15.0 mph24.1 kmh 29.87 in1011.5 mb - 0.00 in0.0 mm 0.15 in3.8 mm
03:45 PM 78.9°F26.1°C 74.4°F23.6°C 86% 8.1 mph E13.0 kmh E 11.5 mph18.5 kmh 29.87 in1011.5 mb - 0.00 in0.0 mm 0.15 in3.8 mm
03:40 PM 78.9°F26.1°C 74.4°F23.6°C 86% 6.9 mph E11.1 kmh E 10.4 mph16.7 kmh 29.87 in1011.5 mb - 0.00 in0.0 mm 0.15 in3.8 mm
03:35 PM 79.0°F26.1°C 74.4°F23.6°C 86% 4.6 mph E7.4 kmh E 8.1 mph13.0 kmh 29.87 in1011.5 mb - 0.00 in0.0 mm 0.15 in3.8 mm
03:30 PM 78.9°F26.1°C 74.4°F23.6°C 86% 6.9 mph E11.1 kmh E 11.5 mph18.5 kmh 29.87 in1011.5 mb - 0.00 in0.0 mm 0.15 in3.8 mm
03:25 PM 78.8°F26.0°C 74.3°F23.5°C 86% 8.1 mph ESE13.0 kmh ESE 13.8 mph22.2 kmh 29.88 in1011.9 mb - 0.00 in0.0 mm 0.15 in3.8 mm
03:20 PM 78.6°F25.9°C 74.1°F23.4°C 86% 6.9 mph E11.1 kmh E 10.4 mph16.7 kmh 29.87 in1011.5 mb - 0.00 in0.0 mm 0.15 in3.8 mm
03:15 PM 78.5°F25.8°C 74.0°F23.3°C 86% 9.2 mph ESE14.8 kmh ESE 12.7 mph20.4 kmh 29.88 in1011.9 mb - 0.00 in0.0 mm 0.15 in3.8 mm
03:10 PM 78.5°F25.8°C 74.0°F23.3°C 86% 5.8 mph ESE9.3 kmh ESE 9.2 mph14.8 kmh 29.88 in1011.9 mb - 0.00 in0.0 mm 0.15 in3.8 mm
03:00 PM 78.5°F25.8°C 74.0°F23.3°C 86% 8.1 mph ESE13.0 kmh ESE 11.5 mph18.5 kmh 29.88 in1011.9 mb - 0.00 in0.0 mm 0.15 in3.8 mm
02:55 PM 78.5°F25.8°C 74.0°F23.3°C 86% 8.1 mph E13.0 kmh E 11.5 mph18.5 kmh 29.88 in1011.9 mb - 0.00 in0.0 mm 0.15 in3.8 mm
02:50 PM 78.5°F25.8°C 74.0°F23.3°C 86% 6.9 mph E11.1 kmh E 9.2 mph14.8 kmh 29.88 in1011.9 mb - 0.01 in0.3 mm 0.15 in3.8 mm
02:45 PM 78.5°F25.8°C 74.0°F23.3°C 86% 9.2 mph E14.8 kmh E 15.0 mph24.1 kmh 29.88 in1011.9 mb - 0.01 in0.3 mm 0.15 in3.8 mm
02:40 PM 78.5°F25.8°C 74.0°F23.3°C 86% 5.8 mph E9.3 kmh E 11.5 mph18.5 kmh 29.88 in1011.9 mb - 0.01 in0.3 mm 0.15 in3.8 mm
02:35 PM 78.4°F25.8°C 73.9°F23.3°C 86% 9.2 mph ESE14.8 kmh ESE 11.5 mph18.5 kmh 29.88 in1011.9 mb - 0.01 in0.3 mm 0.15 in3.8 mm
02:30 PM 78.4°F25.8°C 73.9°F23.3°C 86% 8.1 mph E13.0 kmh E 16.1 mph25.9 kmh 29.88 in1011.9 mb - 0.01 in0.3 mm 0.15 in3.8 mm
02:25 PM 78.3°F25.7°C 73.8°F23.2°C 86% 10.4 mph E16.7 kmh E 17.3 mph27.8 kmh 29.88 in1011.9 mb - 0.01 in0.3 mm 0.15 in3.8 mm
02:20 PM 78.2°F25.7°C 73.7°F23.2°C 86% 8.1 mph ESE13.0 kmh ESE 13.8 mph22.2 kmh 29.88 in1011.9 mb - 0.01 in0.3 mm 0.15 in3.8 mm
02:15 PM 78.0°F25.6°C 73.1°F22.8°C 85% 11.5 mph ESE18.5 kmh ESE 18.4 mph29.6 kmh 29.89 in1012.2 mb - 0.01 in0.3 mm 0.15 in3.8 mm
02:10 PM 78.2°F25.7°C 73.0°F22.8°C 84% 8.1 mph E13.0 kmh E 15.0 mph24.1 kmh 29.89 in1012.2 mb - 0.01 in0.3 mm 0.15 in3.8 mm
02:00 PM 78.2°F25.7°C 72.6°F22.6°C 83% 9.2 mph E14.8 kmh E 11.5 mph18.5 kmh 29.89 in1012.2 mb - 0.02 in0.5 mm 0.15 in3.8 mm
01:55 PM 78.1°F25.6°C 72.5°F22.5°C 83% 10.4 mph E16.7 kmh E 15.0 mph24.1 kmh 29.89 in1012.2 mb - 0.02 in0.5 mm 0.15 in3.8 mm
01:50 PM 78.2°F25.7°C 73.0°F22.8°C 84% 11.5 mph E18.5 kmh E 19.6 mph31.5 kmh 29.89 in1012.2 mb - 0.02 in0.5 mm 0.15 in3.8 mm
01:45 PM 78.7°F25.9°C 73.4°F23.0°C 84% 13.8 mph E22.2 kmh E 19.6 mph31.5 kmh 29.89 in1012.2 mb - 0.01 in0.3 mm 0.14 in3.6 mm
01:40 PM 79.3°F26.3°C 74.4°F23.6°C 85% 10.4 mph E16.7 kmh E 17.3 mph27.8 kmh 29.89 in1012.2 mb - 0.01 in0.3 mm 0.14 in3.6 mm
01:35 PM 79.7°F26.5°C 74.8°F23.8°C 85% 13.8 mph E22.2 kmh E 20.7 mph33.3 kmh 29.89 in1012.2 mb - 0.01 in0.3 mm 0.14 in3.6 mm
01:30 PM 79.6°F26.4°C 74.7°F23.7°C 85% 9.2 mph E14.8 kmh E 11.5 mph18.5 kmh 29.89 in1012.2 mb - 0.01 in0.3 mm 0.14 in3.6 mm
01:25 PM 79.4°F26.3°C 74.1°F23.4°C 84% 8.1 mph E13.0 kmh E 12.7 mph20.4 kmh 29.90 in1012.5 mb - 0.01 in0.3 mm 0.14 in3.6 mm
01:20 PM 79.6°F26.4°C 73.7°F23.2°C 82% 10.4 mph E16.7 kmh E 13.8 mph22.2 kmh 29.90 in1012.5 mb - 0.01 in0.3 mm 0.14 in3.6 mm
01:15 PM 79.6°F26.4°C 73.3°F22.9°C 81% 10.4 mph E16.7 kmh E 18.4 mph29.6 kmh 29.90 in1012.5 mb - 0.01 in0.3 mm 0.14 in3.6 mm
01:10 PM 79.7°F26.5°C 72.6°F22.6°C 79% 10.4 mph E16.7 kmh E 13.8 mph22.2 kmh 29.90 in1012.5 mb - 0.01 in0.3 mm 0.14 in3.6 mm
01:00 PM 79.2°F26.2°C 72.1°F22.3°C 79% 9.2 mph E14.8 kmh E 12.7 mph20.4 kmh 29.91 in1012.9 mb - 0.00 in0.0 mm 0.13 in3.3 mm
12:55 PM 79.1°F26.2°C 72.0°F22.2°C 79% 6.9 mph E11.1 kmh E 10.4 mph16.7 kmh 29.91 in1012.9 mb - 0.00 in0.0 mm 0.13 in3.3 mm
12:50 PM 79.0°F26.1°C 71.6°F22.0°C 78% 4.6 mph ESE7.4 kmh ESE 11.5 mph18.5 kmh 29.91 in1012.9 mb - 0.00 in0.0 mm 0.13 in3.3 mm
12:45 PM 78.9°F26.1°C 71.5°F21.9°C 78% 4.6 mph ESE7.4 kmh ESE 6.9 mph11.1 kmh 29.91 in1012.9 mb - 0.00 in0.0 mm 0.13 in3.3 mm
12:40 PM 78.8°F26.0°C 72.1°F22.3°C 80% 9.2 mph ESE14.8 kmh ESE 13.8 mph22.2 kmh 29.92 in1013.2 mb - 0.00 in0.0 mm 0.13 in3.3 mm
12:35 PM 78.8°F26.0°C 71.7°F22.1°C 79% 6.9 mph ESE11.1 kmh ESE 11.5 mph18.5 kmh 29.92 in1013.2 mb - 0.00 in0.0 mm 0.13 in3.3 mm
12:30 PM 78.8°F26.0°C 72.1°F22.3°C 80% 9.2 mph E14.8 kmh E 11.5 mph18.5 kmh 29.92 in1013.2 mb - 0.00 in0.0 mm 0.13 in3.3 mm
12:25 PM 78.8°F26.0°C 72.5°F22.5°C 81% 5.8 mph ESE9.3 kmh ESE 11.5 mph18.5 kmh 29.92 in1013.2 mb - 0.00 in0.0 mm 0.13 in3.3 mm
12:20 PM 78.9°F26.1°C 72.6°F22.6°C 81% 8.1 mph ESE13.0 kmh ESE 16.1 mph25.9 kmh 29.92 in1013.2 mb - 0.00 in0.0 mm 0.13 in3.3 mm
12:15 PM 78.9°F26.1°C 72.9°F22.7°C 82% 8.1 mph ESE13.0 kmh ESE 12.7 mph20.4 kmh 29.92 in1013.2 mb - 0.00 in0.0 mm 0.13 in3.3 mm
12:10 PM 78.9°F26.1°C 72.9°F22.7°C 82% 8.1 mph ESE13.0 kmh ESE 10.4 mph16.7 kmh 29.92 in1013.2 mb - 0.00 in0.0 mm 0.13 in3.3 mm
12:00 PM 79.0°F26.1°C 73.4°F23.0°C 83% 9.2 mph ESE14.8 kmh ESE 18.4 mph29.6 kmh 29.92 in1013.2 mb - 0.00 in0.0 mm 0.13 in3.3 mm
11:55 AM 79.0°F26.1°C 73.8°F23.2°C 84% 10.4 mph E16.7 kmh E 15.0 mph24.1 kmh 29.92 in1013.2 mb - 0.00 in0.0 mm 0.13 in3.3 mm
11:50 AM 79.2°F26.2°C 74.0°F23.3°C 84% 8.1 mph ESE13.0 kmh ESE 10.4 mph16.7 kmh 29.93 in1013.5 mb - 0.00 in0.0 mm 0.13 in3.3 mm
11:45 AM 79.3°F26.3°C 74.4°F23.6°C 85% 10.4 mph E16.7 kmh E 12.7 mph20.4 kmh 29.93 in1013.5 mb - 0.01 in0.3 mm 0.13 in3.3 mm
11:40 AM 79.6°F26.4°C 74.7°F23.7°C 85% 8.1 mph ESE13.0 kmh ESE 13.8 mph22.2 kmh 29.93 in1013.5 mb - 0.01 in0.3 mm 0.13 in3.3 mm
11:35 AM 79.7°F26.5°C 74.8°F23.8°C 85% 8.1 mph E13.0 kmh E 11.5 mph18.5 kmh 29.93 in1013.5 mb - 0.02 in0.5 mm 0.13 in3.3 mm
11:30 AM 79.6°F26.4°C 74.7°F23.7°C 85% 9.2 mph SE14.8 kmh SE 12.7 mph20.4 kmh 29.93 in1013.5 mb - 0.02 in0.5 mm 0.13 in3.3 mm
11:25 AM 79.8°F26.6°C 74.5°F23.6°C 84% 8.1 mph ESE13.0 kmh ESE 11.5 mph18.5 kmh 29.93 in1013.5 mb - 0.02 in0.5 mm 0.13 in3.3 mm
11:20 AM 79.8°F26.6°C 74.2°F23.4°C 83% 9.2 mph E14.8 kmh E 13.8 mph22.2 kmh 29.93 in1013.5 mb - 0.02 in0.5 mm 0.13 in3.3 mm
11:15 AM 80.0°F26.7°C 72.5°F22.5°C 78% 9.2 mph E14.8 kmh E 16.1 mph25.9 kmh 29.93 in1013.5 mb - 0.02 in0.5 mm 0.13 in3.3 mm
11:10 AM 79.4°F26.3°C 71.2°F21.8°C 76% 9.2 mph E14.8 kmh E 11.5 mph18.5 kmh 29.93 in1013.5 mb - 0.03 in0.8 mm 0.13 in3.3 mm
11:00 AM 78.8°F26.0°C 70.2°F21.2°C 75% 10.4 mph ESE16.7 kmh ESE 11.5 mph18.5 kmh 29.93 in1013.5 mb - 0.06 in1.5 mm 0.13 in3.3 mm
10:55 AM 78.7°F25.9°C 69.3°F20.7°C 73% 6.9 mph ESE11.1 kmh ESE 17.3 mph27.8 kmh 29.93 in1013.5 mb - 0.06 in1.5 mm 0.13 in3.3 mm
10:50 AM 78.3°F25.7°C 68.9°F20.5°C 73% 9.2 mph E14.8 kmh E 11.5 mph18.5 kmh 29.93 in1013.5 mb - 0.06 in1.5 mm 0.13 in3.3 mm
10:45 AM 77.9°F25.5°C 69.3°F20.7°C 75% 11.5 mph ESE18.5 kmh ESE 15.0 mph24.1 kmh 29.93 in1013.5 mb - 0.06 in1.5 mm 0.13 in3.3 mm
10:40 AM 77.8°F25.4°C 68.8°F20.4°C 74% 12.7 mph ESE20.4 kmh ESE 16.1 mph25.9 kmh 29.93 in1013.5 mb - 0.06 in1.5 mm 0.13 in3.3 mm
10:35 AM 77.7°F25.4°C 68.8°F20.4°C 74% 10.4 mph ESE16.7 kmh ESE 15.0 mph24.1 kmh 29.93 in1013.5 mb - 0.05 in1.3 mm 0.12 in3.0 mm
10:30 AM 77.9°F25.5°C 68.1°F20.1°C 72% 8.1 mph E13.0 kmh E 16.1 mph25.9 kmh 29.93 in1013.5 mb - 0.05 in1.3 mm 0.12 in3.0 mm
10:25 AM 78.0°F25.6°C 68.2°F20.1°C 72% 8.1 mph ESE13.0 kmh ESE 11.5 mph18.5 kmh 29.93 in1013.5 mb - 0.05 in1.3 mm 0.12 in3.0 mm
10:20 AM 77.9°F25.5°C 68.5°F20.3°C 73% 9.2 mph ESE14.8 kmh ESE 12.7 mph20.4 kmh 29.93 in1013.5 mb - 0.04 in1.0 mm 0.11 in2.8 mm
10:15 AM 78.2°F25.7°C 68.4°F20.2°C 72% 8.1 mph ESE13.0 kmh ESE 11.5 mph18.5 kmh 29.93 in1013.5 mb - 0.04 in1.0 mm 0.11 in2.8 mm
10:10 AM 78.3°F25.7°C 68.5°F20.3°C 72% 6.9 mph E11.1 kmh E 15.0 mph24.1 kmh 29.94 in1013.9 mb - 0.03 in0.8 mm 0.10 in2.5 mm
10:00 AM 78.3°F25.7°C 69.7°F20.9°C 75% 6.9 mph E11.1 kmh E 10.4 mph16.7 kmh 29.94 in1013.9 mb - 0.01 in0.3 mm 0.08 in2.0 mm
09:55 AM 78.4°F25.8°C 70.2°F21.2°C 76% 6.9 mph E11.1 kmh E 9.2 mph14.8 kmh 29.94 in1013.9 mb - 0.00 in0.0 mm 0.07 in1.8 mm
09:50 AM 78.4°F25.8°C 71.0°F21.7°C 78% 9.2 mph E14.8 kmh E 12.7 mph20.4 kmh 29.94 in1013.9 mb - 0.00 in0.0 mm 0.07 in1.8 mm
09:45 AM 78.6°F25.9°C 72.3°F22.4°C 81% 10.4 mph E16.7 kmh E 13.8 mph22.2 kmh 29.94 in1013.9 mb - 0.00 in0.0 mm 0.07 in1.8 mm
09:40 AM 79.2°F26.2°C 72.8°F22.7°C 81% 10.4 mph ENE16.7 kmh ENE 17.3 mph27.8 kmh 29.94 in1013.9 mb - 0.01 in0.3 mm 0.07 in1.8 mm
09:35 AM 79.3°F26.3°C 73.3°F22.9°C 82% 5.8 mph E9.3 kmh E 6.9 mph11.1 kmh 29.93 in1013.5 mb - 0.01 in0.3 mm 0.07 in1.8 mm
09:30 AM 79.5°F26.4°C 73.5°F23.1°C 82% 9.2 mph E14.8 kmh E 11.5 mph18.5 kmh 29.93 in1013.5 mb - 0.01 in0.3 mm 0.07 in1.8 mm
09:25 AM 79.6°F26.4°C 73.2°F22.9°C 81% 6.9 mph ESE11.1 kmh ESE 12.7 mph20.4 kmh 29.93 in1013.5 mb - 0.01 in0.3 mm 0.07 in1.8 mm
09:20 AM 79.8°F26.6°C 72.7°F22.6°C 79% 9.2 mph ESE14.8 kmh ESE 19.6 mph31.5 kmh 29.93 in1013.5 mb - 0.01 in0.3 mm 0.07 in1.8 mm
09:15 AM 79.9°F26.6°C 72.0°F22.2°C 77% 6.9 mph ESE11.1 kmh ESE 9.2 mph14.8 kmh 29.92 in1013.2 mb - 0.01 in0.3 mm 0.07 in1.8 mm
09:10 AM 79.8°F26.6°C 72.0°F22.2°C 77% 8.1 mph ESE13.0 kmh ESE 11.5 mph18.5 kmh 29.93 in1013.5 mb - 0.01 in0.3 mm 0.07 in1.8 mm
09:00 AM 79.9°F26.6°C 72.0°F22.2°C 77% 8.1 mph ESE13.0 kmh ESE 9.2 mph14.8 kmh 29.93 in1013.5 mb - 0.01 in0.3 mm 0.07 in1.8 mm
08:55 AM 80.3°F26.8°C 71.6°F22.0°C 75% 4.6 mph SE7.4 kmh SE 9.2 mph14.8 kmh 29.93 in1013.5 mb - 0.01 in0.3 mm 0.07 in1.8 mm
08:50 AM 80.5°F26.9°C 71.0°F21.7°C 73% 3.5 mph E5.6 kmh E 10.4 mph16.7 kmh 29.92 in1013.2 mb - 0.01 in0.3 mm 0.07 in1.8 mm
08:45 AM 80.4°F26.9°C 70.9°F21.6°C 73% 9.2 mph E14.8 kmh E 11.5 mph18.5 kmh 29.92 in1013.2 mb - 0.01 in0.3 mm 0.07 in1.8 mm
08:40 AM 80.1°F26.7°C 69.9°F21.1°C 71% 6.9 mph E11.1 kmh E 6.9 mph11.1 kmh 29.92 in1013.2 mb - 0.00 in0.0 mm 0.06 in1.5 mm
08:35 AM 79.9°F26.6°C 68.8°F20.4°C 69% 3.5 mph E5.6 kmh E 3.5 mph5.6 kmh 29.92 in1013.2 mb - 0.00 in0.0 mm 0.06 in1.5 mm
08:30 AM 79.6°F26.4°C 68.9°F20.5°C 70% 3.5 mph ESE5.6 kmh ESE 6.9 mph11.1 kmh 29.91 in1012.9 mb - 0.00 in0.0 mm 0.06 in1.5 mm
08:25 AM 79.5°F26.4°C 69.3°F20.7°C 71% 3.5 mph SE5.6 kmh SE 3.5 mph5.6 kmh 29.91 in1012.9 mb - 0.00 in0.0 mm 0.06 in1.5 mm
08:20 AM 79.9°F26.6°C 67.5°F19.7°C 66% 2.3 mph SE3.7 kmh SE 3.5 mph5.6 kmh 29.91 in1012.9 mb - 0.00 in0.0 mm 0.06 in1.5 mm
08:15 AM 79.8°F26.6°C 67.4°F19.7°C 66% 2.3 mph SE3.7 kmh SE 3.5 mph5.6 kmh 29.91 in1012.9 mb - 0.00 in0.0 mm 0.06 in1.5 mm
08:10 AM 79.7°F26.5°C 66.9°F19.4°C 65% 2.3 mph SE3.7 kmh SE 3.5 mph5.6 kmh 29.91 in1012.9 mb - 0.00 in0.0 mm 0.06 in1.5 mm
08:00 AM 79.4°F26.3°C 66.1°F18.9°C 64% 2.3 mph SE3.7 kmh SE 3.5 mph5.6 kmh 29.91 in1012.9 mb - 0.00 in0.0 mm 0.06 in1.5 mm
07:55 AM 79.1°F26.2°C 65.9°F18.8°C 64% 3.5 mph SE5.6 kmh SE 5.8 mph9.3 kmh 29.92 in1013.2 mb - 0.00 in0.0 mm 0.06 in1.5 mm
07:50 AM 79.0°F26.1°C 66.2°F19.0°C 65% 3.5 mph ESE5.6 kmh ESE 3.5 mph5.6 kmh 29.92 in1013.2 mb - 0.00 in0.0 mm 0.06 in1.5 mm
07:45 AM 78.8°F26.0°C 66.0°F18.9°C 65% 2.3 mph E3.7 kmh E 3.5 mph5.6 kmh 29.92 in1013.2 mb - 0.00 in0.0 mm 0.06 in1.5 mm
07:40 AM 78.6°F25.9°C 65.8°F18.8°C 65% 3.5 mph E5.6 kmh E 3.5 mph5.6 kmh 29.92 in1013.2 mb - 0.00 in0.0 mm 0.06 in1.5 mm
07:35 AM 78.5°F25.8°C 65.3°F18.5°C 64% 2.3 mph ENE3.7 kmh ENE 3.5 mph5.6 kmh 29.91 in1012.9 mb - 0.00 in0.0 mm 0.06 in1.5 mm
07:30 AM 78.3°F25.7°C 65.1°F18.4°C 64% 2.3 mph E3.7 kmh E 3.5 mph5.6 kmh 29.91 in1012.9 mb - 0.00 in0.0 mm 0.06 in1.5 mm
07:25 AM 78.2°F25.7°C 65.5°F18.6°C 65% 2.3 mph ENE3.7 kmh ENE 3.5 mph5.6 kmh 29.91 in1012.9 mb - 0.00 in0.0 mm 0.06 in1.5 mm
07:20 AM 78.2°F25.7°C 65.0°F18.3°C 64% 4.6 mph ENE7.4 kmh ENE 3.5 mph5.6 kmh 29.91 in1012.9 mb - 0.00 in0.0 mm 0.06 in1.5 mm
07:15 AM 78.3°F25.7°C 64.7°F18.2°C 63% 3.5 mph ENE5.6 kmh ENE 4.6 mph7.4 kmh 29.91 in1012.9 mb - 0.00 in0.0 mm 0.06 in1.5 mm
07:10 AM 78.4°F25.8°C 64.3°F17.9°C 62% 4.6 mph ENE7.4 kmh ENE 9.2 mph14.8 kmh 29.91 in1012.9 mb - 0.00 in0.0 mm 0.06 in1.5 mm
07:00 AM 78.4°F25.8°C 64.3°F17.9°C 62% 4.6 mph ENE7.4 kmh ENE 8.1 mph13.0 kmh 29.91 in1012.9 mb - 0.00 in0.0 mm 0.06 in1.5 mm
06:55 AM 78.3°F25.7°C 64.2°F17.9°C 62% 3.5 mph E5.6 kmh E 6.9 mph11.1 kmh 29.90 in1012.5 mb - 0.00 in0.0 mm 0.06 in1.5 mm
06:50 AM 78.2°F25.7°C 64.6°F18.1°C 63% 2.3 mph E3.7 kmh E 3.5 mph5.6 kmh 29.90 in1012.5 mb - 0.00 in0.0 mm 0.06 in1.5 mm
06:45 AM 78.0°F25.6°C 64.4°F18.0°C 63% 2.3 mph E3.7 kmh E 3.5 mph5.6 kmh 29.90 in1012.5 mb - 0.00 in0.0 mm 0.06 in1.5 mm
06:40 AM 77.9°F25.5°C 64.7°F18.2°C 64% 2.3 mph E3.7 kmh E 3.5 mph5.6 kmh 29.89 in1012.2 mb - 0.00 in0.0 mm 0.06 in1.5 mm
06:35 AM 77.8°F25.4°C 64.6°F18.1°C 64% 1.2 mph E1.9 kmh E 3.5 mph5.6 kmh 29.89 in1012.2 mb - 0.00 in0.0 mm 0.06 in1.5 mm
06:30 AM 77.8°F25.4°C 65.1°F18.4°C 65% 1.2 mph NE1.9 kmh NE 2.3 mph3.7 kmh 29.89 in1012.2 mb - 0.00 in0.0 mm 0.06 in1.5 mm
06:25 AM 77.8°F25.4°C 65.1°F18.4°C 65% 2.3 mph ENE3.7 kmh ENE 2.3 mph3.7 kmh 29.89 in1012.2 mb - 0.00 in0.0 mm 0.06 in1.5 mm
06:20 AM 77.8°F25.4°C 65.1°F18.4°C 65% 2.3 mph E3.7 kmh E 3.5 mph5.6 kmh 29.89 in1012.2 mb - 0.00 in0.0 mm 0.06 in1.5 mm
06:15 AM 77.7°F25.4°C 65.0°F18.3°C 65% 2.3 mph E3.7 kmh E 3.5 mph5.6 kmh 29.89 in1012.2 mb - 0.00 in0.0 mm 0.06 in1.5 mm
06:10 AM 77.7°F25.4°C 65.4°F18.6°C 66% 2.3 mph E3.7 kmh E 3.5 mph5.6 kmh 29.89 in1012.2 mb - 0.00 in0.0 mm 0.06 in1.5 mm
06:00 AM 77.7°F25.4°C 65.4°F18.6°C 66% 2.3 mph E3.7 kmh E 3.5 mph5.6 kmh 29.89 in1012.2 mb - 0.00 in0.0 mm 0.06 in1.5 mm
05:55 AM 77.7°F25.4°C 65.5°F18.6°C 66% 2.3 mph E3.7 kmh E 3.5 mph5.6 kmh 29.89 in1012.2 mb - 0.00 in0.0 mm 0.06 in1.5 mm
05:50 AM 77.8°F25.4°C 65.1°F18.4°C 65% 2.3 mph E3.7 kmh E 3.5 mph5.6 kmh 29.89 in1012.2 mb - 0.00 in0.0 mm 0.06 in1.5 mm
05:45 AM 77.7°F25.4°C 65.0°F18.3°C 65% 3.5 mph ESE5.6 kmh ESE 5.8 mph9.3 kmh 29.89 in1012.2 mb - 0.00 in0.0 mm 0.06 in1.5 mm
05:40 AM 77.5°F25.3°C 64.8°F18.2°C 65% 4.6 mph ESE7.4 kmh ESE 5.8 mph9.3 kmh 29.89 in1012.2 mb - 0.00 in0.0 mm 0.06 in1.5 mm
05:35 AM 77.4°F25.2°C 65.1°F18.4°C 66% 3.5 mph SE5.6 kmh SE 3.5 mph5.6 kmh 29.88 in1011.9 mb - 0.00 in0.0 mm 0.06 in1.5 mm
05:30 AM 77.4°F25.2°C 65.2°F18.4°C 66% 2.3 mph SE3.7 kmh SE 4.6 mph7.4 kmh 29.88 in1011.9 mb - 0.00 in0.0 mm 0.06 in1.5 mm
05:25 AM 77.5°F25.3°C 65.3°F18.5°C 66% 2.3 mph ESE3.7 kmh ESE 3.5 mph5.6 kmh 29.88 in1011.9 mb - 0.00 in0.0 mm 0.06 in1.5 mm
05:20 AM 77.7°F25.4°C 65.0°F18.3°C 65% 3.5 mph E5.6 kmh E 6.9 mph11.1 kmh 29.88 in1011.9 mb - 0.01 in0.3 mm 0.06 in1.5 mm
05:15 AM 77.8°F25.4°C 65.1°F18.4°C 65% 3.5 mph E5.6 kmh E 6.9 mph11.1 kmh 29.88 in1011.9 mb - 0.05 in1.3 mm 0.06 in1.5 mm
05:10 AM 77.9°F25.5°C 65.2°F18.4°C 65% 3.5 mph E5.6 kmh E 5.8 mph9.3 kmh 29.88 in1011.9 mb - 0.06 in1.5 mm 0.06 in1.5 mm
05:00 AM 77.9°F25.5°C 65.2°F18.4°C 65% 2.3 mph E3.7 kmh E 3.5 mph5.6 kmh 29.88 in1011.9 mb - 0.06 in1.5 mm 0.06 in1.5 mm
04:55 AM 78.0°F25.6°C 65.7°F18.7°C 66% 3.5 mph ESE5.6 kmh ESE 6.9 mph11.1 kmh 29.88 in1011.9 mb - 0.06 in1.5 mm 0.06 in1.5 mm
04:50 AM 77.9°F25.5°C 66.1°F18.9°C 67% 3.5 mph E5.6 kmh E 5.8 mph9.3 kmh 29.88 in1011.9 mb - 0.06 in1.5 mm 0.06 in1.5 mm
04:45 AM 77.9°F25.5°C 66.1°F18.9°C 67% 3.5 mph E5.6 kmh E 5.8 mph9.3 kmh 29.88 in1011.9 mb - 0.06 in1.5 mm 0.06 in1.5 mm
04:40 AM 77.9°F25.5°C 66.5°F19.2°C 68% 2.3 mph E3.7 kmh E 3.5 mph5.6 kmh 29.88 in1011.9 mb - 0.06 in1.5 mm 0.06 in1.5 mm
04:35 AM 77.9°F25.5°C 66.9°F19.4°C 69% 4.6 mph E7.4 kmh E 6.9 mph11.1 kmh 29.89 in1012.2 mb - 0.06 in1.5 mm 0.06 in1.5 mm
04:30 AM 78.0°F25.6°C 67.0°F19.4°C 69% 4.6 mph E7.4 kmh E 5.8 mph9.3 kmh 29.88 in1011.9 mb - 0.06 in1.5 mm 0.06 in1.5 mm
04:25 AM 78.1°F25.6°C 67.5°F19.7°C 70% 4.6 mph E7.4 kmh E 8.1 mph13.0 kmh 29.89 in1012.2 mb - 0.06 in1.5 mm 0.06 in1.5 mm
04:20 AM 78.2°F25.7°C 67.6°F19.8°C 70% 4.6 mph ESE7.4 kmh ESE 8.1 mph13.0 kmh 29.89 in1012.2 mb - 0.06 in1.5 mm 0.06 in1.5 mm
04:15 AM 78.3°F25.7°C 67.7°F19.8°C 70% 3.5 mph E5.6 kmh E 4.6 mph7.4 kmh 29.89 in1012.2 mb - 0.02 in0.5 mm 0.02 in0.5 mm
04:10 AM 78.4°F25.8°C 67.8°F19.9°C 70% 4.6 mph E7.4 kmh E 8.1 mph13.0 kmh 29.88 in1011.9 mb - 0.02 in0.5 mm 0.02 in0.5 mm
04:00 AM 78.5°F25.8°C 67.5°F19.7°C 69% 4.6 mph E7.4 kmh E 5.8 mph9.3 kmh 29.88 in1011.9 mb - 0.01 in0.3 mm 0.01 in0.3 mm
03:55 AM 78.5°F25.8°C 67.5°F19.7°C 69% 3.5 mph E5.6 kmh E 3.5 mph5.6 kmh 29.89 in1012.2 mb - 0.01 in0.3 mm 0.01 in0.3 mm
03:50 AM 78.5°F25.8°C 67.5°F19.7°C 69% 3.5 mph E5.6 kmh E 8.1 mph13.0 kmh 29.89 in1012.2 mb - 0.00 in0.0 mm 0.00 in0.0 mm
03:45 AM 78.4°F25.8°C 67.4°F19.7°C 69% 4.6 mph E7.4 kmh E 5.8 mph9.3 kmh 29.89 in1012.2 mb - 0.00 in0.0 mm 0.00 in0.0 mm
03:40 AM 78.5°F25.8°C 67.5°F19.7°C 69% 2.3 mph E3.7 kmh E 3.5 mph5.6 kmh 29.89 in1012.2 mb - 0.00 in0.0 mm 0.00 in0.0 mm
03:35 AM 78.5°F25.8°C 67.5°F19.7°C 69% 2.3 mph E3.7 kmh E 3.5 mph5.6 kmh 29.89 in1012.2 mb - 0.00 in0.0 mm 0.00 in0.0 mm
03:30 AM 78.5°F25.8°C 67.9°F19.9°C 70% 2.3 mph E3.7 kmh E 3.5 mph5.6 kmh 29.89 in1012.2 mb - 0.00 in0.0 mm 0.00 in0.0 mm
03:25 AM 78.5°F25.8°C 67.9°F19.9°C 70% 2.3 mph E3.7 kmh E 3.5 mph5.6 kmh 29.88 in1011.9 mb - 0.00 in0.0 mm 0.00 in0.0 mm
03:20 AM 78.5°F25.8°C 67.9°F19.9°C 70% 1.2 mph E1.9 kmh E 3.5 mph5.6 kmh 29.88 in1011.9 mb - 0.00 in0.0 mm 0.00 in0.0 mm
03:15 AM 78.4°F25.8°C 68.2°F20.1°C 71% 2.3 mph ESE3.7 kmh ESE 3.5 mph5.6 kmh 29.88 in1011.9 mb - 0.00 in0.0 mm 0.00 in0.0 mm
03:10 AM 78.4°F25.8°C 68.2°F20.1°C 71% 3.5 mph SE5.6 kmh SE 4.6 mph7.4 kmh 29.88 in1011.9 mb - 0.00 in0.0 mm 0.00 in0.0 mm
03:00 AM 78.5°F25.8°C 68.3°F20.2°C 71% 3.5 mph ESE5.6 kmh ESE 5.8 mph9.3 kmh 29.88 in1011.9 mb - 0.00 in0.0 mm 0.00 in0.0 mm
02:55 AM 78.5°F25.8°C 68.3°F20.2°C 71% 3.5 mph ESE5.6 kmh ESE 5.8 mph9.3 kmh 29.88 in1011.9 mb - 0.00 in0.0 mm 0.00 in0.0 mm
02:50 AM 78.5°F25.8°C 68.3°F20.2°C 71% 3.5 mph E5.6 kmh E 10.4 mph16.7 kmh 29.89 in1012.2 mb - 0.00 in0.0 mm 0.00 in0.0 mm
02:45 AM 78.5°F25.8°C 67.9°F19.9°C 70% 4.6 mph E7.4 kmh E 8.1 mph13.0 kmh 29.89 in1012.2 mb - 0.00 in0.0 mm 0.00 in0.0 mm
02:40 AM 78.5°F25.8°C 67.9°F19.9°C 70% 3.5 mph ESE5.6 kmh ESE 3.5 mph5.6 kmh 29.89 in1012.2 mb - 0.00 in0.0 mm 0.00 in0.0 mm
02:35 AM 78.5°F25.8°C 67.5°F19.7°C 69% 2.3 mph E3.7 kmh E 5.8 mph9.3 kmh 29.90 in1012.5 mb - 0.00 in0.0 mm 0.00 in0.0 mm
02:30 AM 78.5°F25.8°C 67.5°F19.7°C 69% 2.3 mph E3.7 kmh E 5.8 mph9.3 kmh 29.90 in1012.5 mb - 0.00 in0.0 mm 0.00 in0.0 mm
02:25 AM 78.5°F25.8°C 67.5°F19.7°C 69% 2.3 mph E3.7 kmh E 5.8 mph9.3 kmh 29.90 in1012.5 mb - 0.00 in0.0 mm 0.00 in0.0 mm
02:20 AM 78.5°F25.8°C 67.4°F19.7°C 69% 2.3 mph E3.7 kmh E 3.5 mph5.6 kmh 29.90 in1012.5 mb - 0.00 in0.0 mm 0.00 in0.0 mm
02:15 AM 78.4°F25.8°C 67.4°F19.7°C 69% 2.3 mph E3.7 kmh E 3.5 mph5.6 kmh 29.90 in1012.5 mb - 0.00 in0.0 mm 0.00 in0.0 mm
02:10 AM 78.4°F25.8°C 67.4°F19.7°C 69% 2.3 mph ENE3.7 kmh ENE 3.5 mph5.6 kmh 29.90 in1012.5 mb - 0.00 in0.0 mm 0.00 in0.0 mm
02:00 AM 78.4°F25.8°C 67.0°F19.4°C 68% 2.3 mph ENE3.7 kmh ENE 3.5 mph5.6 kmh 29.90 in1012.5 mb - 0.00 in0.0 mm 0.00 in0.0 mm
01:55 AM 78.4°F25.8°C 67.0°F19.4°C 68% 2.3 mph E3.7 kmh E 3.5 mph5.6 kmh 29.90 in1012.5 mb - 0.00 in0.0 mm 0.00 in0.0 mm
01:50 AM 78.4°F25.8°C 67.0°F19.4°C 68% 1.2 mph E1.9 kmh E 3.5 mph5.6 kmh 29.90 in1012.5 mb - 0.00 in0.0 mm 0.00 in0.0 mm
01:45 AM 78.4°F25.8°C 66.5°F19.2°C 67% 2.3 mph ESE3.7 kmh ESE 3.5 mph5.6 kmh 29.90 in1012.5 mb - 0.00 in0.0 mm 0.00 in0.0 mm
01:40 AM 78.4°F25.8°C 66.5°F19.2°C 67% 2.3 mph ESE3.7 kmh ESE 3.5 mph5.6 kmh 29.90 in1012.5 mb - 0.00 in0.0 mm 0.00 in0.0 mm
01:35 AM 78.4°F25.8°C 66.1°F18.9°C 66% 3.5 mph ESE5.6 kmh ESE 3.5 mph5.6 kmh 29.90 in1012.5 mb - 0.00 in0.0 mm 0.00 in0.0 mm
01:30 AM 78.3°F25.7°C 66.0°F18.9°C 66% 2.3 mph ESE3.7 kmh ESE 3.5 mph5.6 kmh 29.90 in1012.5 mb - 0.00 in0.0 mm 0.00 in0.0 mm
01:25 AM 78.2°F25.7°C 65.9°F18.8°C 66% 2.3 mph ESE3.7 kmh ESE 3.5 mph5.6 kmh 29.90 in1012.5 mb - 0.00 in0.0 mm 0.00 in0.0 mm
01:20 AM 78.2°F25.7°C 65.9°F18.8°C 66% 3.5 mph E5.6 kmh E 5.8 mph9.3 kmh 29.90 in1012.5 mb - 0.00 in0.0 mm 0.00 in0.0 mm
01:15 AM 78.1°F25.6°C 65.8°F18.8°C 66% 2.3 mph E3.7 kmh E 3.5 mph5.6 kmh 29.91 in1012.9 mb - 0.00 in0.0 mm 0.00 in0.0 mm
01:10 AM 78.1°F25.6°C 65.8°F18.8°C 66% 2.3 mph E3.7 kmh E 4.6 mph7.4 kmh 29.90 in1012.5 mb - 0.00 in0.0 mm 0.00 in0.0 mm
01:00 AM 78.1°F25.6°C 65.3°F18.5°C 65% 2.3 mph E3.7 kmh E 3.5 mph5.6 kmh 29.90 in1012.5 mb - 0.00 in0.0 mm 0.00 in0.0 mm
12:55 AM 78.0°F25.6°C 65.3°F18.5°C 65% 3.5 mph SE5.6 kmh SE 3.5 mph5.6 kmh 29.90 in1012.5 mb - 0.00 in0.0 mm 0.00 in0.0 mm
12:50 AM 78.0°F25.6°C 65.3°F18.5°C 65% 3.5 mph ESE5.6 kmh ESE 5.8 mph9.3 kmh 29.91 in1012.9 mb - 0.00 in0.0 mm 0.00 in0.0 mm
12:45 AM 78.0°F25.6°C 64.8°F18.2°C 64% 2.3 mph E3.7 kmh E 3.5 mph5.6 kmh 29.91 in1012.9 mb - 0.00 in0.0 mm 0.00 in0.0 mm
12:40 AM 78.0°F25.6°C 64.8°F18.2°C 64% 2.3 mph E3.7 kmh E 4.6 mph7.4 kmh 29.91 in1012.9 mb - 0.00 in0.0 mm 0.00 in0.0 mm
12:35 AM 78.0°F25.6°C 64.8°F18.2°C 64% 2.3 mph ESE3.7 kmh ESE 3.5 mph5.6 kmh 29.91 in1012.9 mb - 0.00 in0.0 mm 0.00 in0.0 mm
12:30 AM 78.0°F25.6°C 64.8°F18.2°C 64% 2.3 mph ESE3.7 kmh ESE 3.5 mph5.6 kmh 29.91 in1012.9 mb - 0.00 in0.0 mm 0.00 in0.0 mm
12:25 AM 77.9°F25.5°C 64.7°F18.2°C 64% 2.3 mph E3.7 kmh E 3.5 mph5.6 kmh 29.91 in1012.9 mb - 0.00 in0.0 mm 0.00 in0.0 mm
12:20 AM 77.9°F25.5°C 64.7°F18.2°C 64% 2.3 mph ESE3.7 kmh ESE 3.5 mph5.6 kmh 29.91 in1012.9 mb - 0.00 in0.0 mm 0.00 in0.0 mm
12:15 AM 77.8°F25.4°C 64.6°F18.1°C 64% 3.5 mph ESE5.6 kmh ESE 5.8 mph9.3 kmh 29.91 in1012.9 mb - 0.00 in0.0 mm 0.00 in0.0 mm
12:10 AM 77.8°F25.4°C 64.6°F18.1°C 64% 3.5 mph ESE5.6 kmh ESE 5.8 mph9.3 kmh 29.91 in1012.9 mb - 0.00 in0.0 mm 0.00 in0.0 mm
12:00 AM 77.8°F25.4°C 65.1°F18.4°C 65% 3.5 mph SE5.6 kmh SE 3.5 mph5.6 kmh 29.91 in1012.9 mb - 0.00 in0.0 mm 0.00 in0.0 mm